Time;durP1;ratioP1;P1;durP2;ratioP2;P2;SDS_P1;SDS_P2;PMS_P1;PMS_P2;Temp;Humidity;BMP_temperature;BMP_pressure;BME280_temperature;BME280_humidity;BME280_pressure;Samples;Min_cycle;Max_cycle;Signal;HPM_P1;HPM_P2
2021/12/31 00:00:04;;;;;;;6.53;6.13;;;11.90;99.90;;;;;;5014474;28;20505;-47
2021/12/31 00:02:31;;;;;;;7.30;6.60;;;11.90;99.90;;;;;;5015525;28;20482;-48
2021/12/31 00:04:57;;;;;;;6.17;5.57;;;11.80;99.90;;;;;;5015554;28;20467;-48
2021/12/31 00:07:24;;;;;;;5.80;5.40;;;11.90;99.90;;;;;;5015564;28;20505;-48
2021/12/31 00:09:51;;;;;;;5.93;5.53;;;11.90;99.90;;;;;;5015723;28;20479;-55
2021/12/31 00:12:17;;;;;;;10.27;5.73;;;12.00;99.90;;;;;;5015465;28;20490;-55
2021/12/31 00:14:45;;;;;;;6.37;5.90;;;12.00;99.90;;;;;;5014947;28;20475;-55
2021/12/31 00:17:12;;;;;;;6.20;5.70;;;11.90;99.90;;;;;;5015044;28;20482;-54
2021/12/31 00:19:43;;;;;;;7.60;6.40;;;11.90;99.90;;;;;;5015229;28;20479;-54
2021/12/31 00:22:33;;;;;;;6.40;5.90;;;11.90;99.90;;;;;;5015523;28;20479;-55
2021/12/31 00:25:00;;;;;;;6.60;6.10;;;11.90;99.90;;;;;;5023621;28;20490;-47
2021/12/31 00:27:27;;;;;;;6.67;6.03;;;11.90;99.90;;;;;;5014416;28;21226;-48
2021/12/31 00:29:55;;;;;;;6.20;5.50;;;12.00;99.90;;;;;;5014917;28;20448;-52
2021/12/31 00:32:21;;;;;;;5.80;5.50;;;11.90;99.90;;;;;;5014834;28;20537;-52
2021/12/31 00:34:48;;;;;;;6.03;5.57;;;11.90;99.90;;;;;;5015001;28;20459;-52
2021/12/31 00:37:25;;;;;;;6.57;6.07;;;11.90;99.90;;;;;;5014699;28;20879;-52
2021/12/31 00:39:51;;;;;;;6.40;6.00;;;11.90;99.90;;;;;;5014926;28;20493;-49
2021/12/31 00:42:18;;;;;;;7.20;6.70;;;11.90;99.90;;;;;;5014730;28;20483;-49
2021/12/31 00:44:44;;;;;;;6.70;6.20;;;12.00;99.90;;;;;;5014893;28;20934;-49
2021/12/31 00:47:12;;;;;;;6.77;6.13;;;11.90;99.90;;;;;;5014628;28;20490;-46
2021/12/31 00:49:39;;;;;;;6.23;5.73;;;12.00;99.90;;;;;;5006505;28;20529;-49
2021/12/31 00:52:07;;;;;;;7.10;6.60;;;11.90;99.90;;;;;;5014510;28;20482;-48
2021/12/31 00:54:33;;;;;;;7.03;6.40;;;11.90;99.90;;;;;;5014330;28;20502;-48
2021/12/31 00:57:03;;;;;;;7.37;6.67;;;11.90;99.90;;;;;;5014580;28;20482;-48
2021/12/31 00:59:31;;;;;;;6.97;6.47;;;11.90;99.90;;;;;;5014444;28;20505;-48
2021/12/31 01:01:58;;;;;;;7.63;6.83;;;11.90;99.90;;;;;;5014693;28;20455;-49
2021/12/31 01:04:26;;;;;;;7.67;7.07;;;11.90;99.90;;;;;;5014084;28;20484;-48
2021/12/31 01:06:53;;;;;;;7.90;7.30;;;11.90;99.90;;;;;;5014187;28;20503;-49
2021/12/31 01:09:20;;;;;;;8.10;7.40;;;11.90;99.90;;;;;;5013927;28;20444;-48
2021/12/31 01:11:48;;;;;;;8.83;7.30;;;11.90;99.90;;;;;;5014466;28;20889;-49
2021/12/31 01:14:25;;;;;;;8.80;7.90;;;11.90;99.90;;;;;;5014407;28;20526;-49
2021/12/31 01:16:57;;;;;;;8.63;7.60;;;12.00;99.90;;;;;;5014275;28;20475;-48
2021/12/31 01:22:09;;;;;;;8.10;7.40;;;11.90;99.90;;;;;;5014194;28;20495;-52
2021/12/31 01:24:36;;;;;;;8.23;7.63;;;11.90;99.90;;;;;;5014271;28;20455;-52
2021/12/31 01:27:02;;;;;;;11.10;7.60;;;12.00;99.90;;;;;;5014313;28;20476;-52
2021/12/31 01:29:29;;;;;;;8.13;7.50;;;12.00;99.90;;;;;;5013737;28;20880;-53
2021/12/31 01:31:56;;;;;;;7.10;6.50;;;12.00;99.90;;;;;;5013965;28;20487;-52
2021/12/31 01:34:24;;;;;;;7.33;6.73;;;12.00;99.90;;;;;;5013608;28;20451;-53
2021/12/31 01:36:52;;;;;;;9.00;7.33;;;12.00;99.90;;;;;;5010717;28;20471;-52
2021/12/31 01:39:19;;;;;;;6.93;6.43;;;12.00;99.90;;;;;;5013555;28;20929;-51
2021/12/31 01:41:45;;;;;;;7.60;7.00;;;12.00;99.90;;;;;;5013801;28;20455;-54
2021/12/31 01:44:12;;;;;;;6.77;6.13;;;12.00;99.90;;;;;;5013648;28;20480;-55
2021/12/31 01:46:54;;;;;;;6.90;6.40;;;12.00;99.90;;;;;;4994105;28;20476;-56
2021/12/31 01:49:22;;;;;;;7.43;6.20;;;12.00;99.90;;;;;;5003780;28;20506;-56
2021/12/31 01:51:49;;;;;;;8.40;6.67;;;12.00;99.90;;;;;;5013332;28;20491;-55
2021/12/31 01:54:17;;;;;;;6.40;5.90;;;11.90;99.90;;;;;;5013629;28;20498;-55
2021/12/31 01:56:44;;;;;;;5.93;5.33;;;12.00;99.90;;;;;;5012788;28;20483;-48
2021/12/31 01:59:12;;;;;;;6.13;5.63;;;12.00;99.90;;;;;;5013100;28;20913;-49
2021/12/31 02:01:39;;;;;;;5.27;4.97;;;12.00;99.90;;;;;;5013176;28;20451;-49
2021/12/31 02:04:07;;;;;;;6.47;5.97;;;12.00;99.90;;;;;;5013416;28;20482;-48
2021/12/31 02:06:34;;;;;;;5.37;5.07;;;12.00;99.90;;;;;;5013129;28;20499;-48
2021/12/31 02:09:03;;;;;;;5.27;4.97;;;12.10;99.90;;;;;;5007813;28;20446;-48
2021/12/31 02:11:31;;;;;;;4.77;4.47;;;12.10;99.90;;;;;;5013156;28;20553;-49
2021/12/31 02:13:59;;;;;;;5.00;4.60;;;12.10;99.90;;;;;;5013116;28;20482;-48
2021/12/31 02:16:25;;;;;;;5.07;4.77;;;12.10;99.90;;;;;;5013306;28;20492;-49
2021/12/31 02:18:52;;;;;;;4.80;4.40;;;12.10;99.90;;;;;;5012744;28;20614;-49
2021/12/31 02:21:21;;;;;;;4.27;3.93;;;12.10;99.90;;;;;;5012897;28;20459;-49
2021/12/31 02:23:51;;;;;;;4.57;4.17;;;12.20;99.90;;;;;;5012401;28;20448;-48
2021/12/31 02:26:18;;;;;;;4.40;4.10;;;12.20;99.90;;;;;;5012902;28;20476;-48
2021/12/31 02:28:45;;;;;;;4.53;3.53;;;12.20;99.90;;;;;;5012497;28;20470;-48
2021/12/31 02:31:11;;;;;;;4.33;3.80;;;12.20;99.90;;;;;;5012853;28;20479;-49
2021/12/31 02:33:39;;;;;;;5.77;3.30;;;12.20;99.90;;;;;;5012971;28;20448;-48
2021/12/31 02:36:27;;;;;;;3.40;3.07;;;12.20;99.90;;;;;;5012910;28;20510;-49
2021/12/31 02:38:53;;;;;;;3.13;2.93;;;12.20;99.90;;;;;;5006147;28;20515;-49
2021/12/31 02:41:20;;;;;;;5.80;3.97;;;12.20;99.90;;;;;;5011814;28;20487;-49
2021/12/31 02:43:46;;;;;;;3.53;3.07;;;12.20;99.90;;;;;;5012472;28;20966;-48
2021/12/31 02:46:13;;;;;;;3.13;2.90;;;12.20;99.90;;;;;;5012982;28;20503;-48
2021/12/31 02:48:40;;;;;;;4.57;3.40;;;12.10;99.90;;;;;;5012120;28;20502;-49
2021/12/31 02:51:07;;;;;;;9.67;3.43;;;12.10;99.90;;;;;;5012648;28;20447;-49
2021/12/31 02:53:38;;;;;;;3.33;3.13;;;12.10;99.90;;;;;;5012778;28;20798;-48
2021/12/31 02:56:06;;;;;;;4.53;3.10;;;12.00;99.90;;;;;;5013868;28;20475;-48
2021/12/31 02:58:34;;;;;;;7.40;3.90;;;12.00;99.90;;;;;;5021450;28;20919;-49
2021/12/31 03:01:01;;;;;;;10.13;4.40;;;12.00;99.90;;;;;;5012474;28;20479;-49
2021/12/31 03:03:29;;;;;;;7.70;3.27;;;12.00;99.90;;;;;;5011759;28;20456;-49
2021/12/31 03:05:56;;;;;;;17.93;3.97;;;12.00;99.90;;;;;;5012422;28;20479;-48
2021/12/31 03:08:26;;;;;;;11.80;3.73;;;12.00;99.90;;;;;;5011127;28;20887;-48
2021/12/31 03:10:56;;;;;;;8.57;3.83;;;12.00;99.90;;;;;;5012077;28;20530;-49
2021/12/31 03:13:24;;;;;;;6.87;4.20;;;12.00;99.90;;;;;;5012592;28;20479;-48
2021/12/31 03:15:53;;;;;;;4.47;4.07;;;12.00;99.90;;;;;;5011928;28;20506;-49
2021/12/31 03:18:20;;;;;;;6.20;4.57;;;11.90;99.90;;;;;;5011739;28;20875;-49
2021/12/31 03:20:57;;;;;;;4.60;3.53;;;12.00;99.90;;;;;;5012301;28;20480;-49
2021/12/31 03:23:24;;;;;;;8.90;3.93;;;12.00;99.90;;;;;;5013460;28;20561;-49
2021/12/31 03:25:51;;;;;;;11.63;4.37;;;12.00;99.90;;;;;;5025444;28;20475;-48
2021/12/31 03:28:19;;;;;;;5.00;3.60;;;11.90;99.90;;;;;;5012010;28;20663;-49
2021/12/31 03:30:45;;;;;;;5.57;3.83;;;11.90;99.90;;;;;;5011979;28;21019;-49
2021/12/31 03:33:12;;;;;;;6.73;3.77;;;11.90;99.90;;;;;;5011983;28;20451;-49
2021/12/31 03:35:38;;;;;;;10.20;4.10;;;11.90;99.90;;;;;;5011954;28;20506;-48
2021/12/31 03:38:05;;;;;;;4.47;3.80;;;11.90;99.90;;;;;;5011515;28;20475;-49
2021/12/31 03:40:31;;;;;;;5.63;4.13;;;11.90;99.90;;;;;;5011839;28;20997;-49
2021/12/31 03:42:59;;;;;;;6.43;4.10;;;11.90;99.90;;;;;;5011761;28;20514;-48
2021/12/31 03:45:27;;;;;;;4.03;3.63;;;11.80;99.90;;;;;;5011793;28;20887;-49
2021/12/31 03:47:54;;;;;;;4.30;3.57;;;11.90;99.90;;;;;;5011950;28;20483;-48
2021/12/31 03:50:21;;;;;;;5.40;4.00;;;11.80;99.90;;;;;;5012062;28;20471;-49
2021/12/31 03:52:47;;;;;;;4.30;3.97;;;11.80;99.90;;;;;;5016184;28;20483;-49
2021/12/31 03:55:14;;;;;;;6.80;4.37;;;11.80;99.90;;;;;;5015335;28;20502;-47
2021/12/31 03:57:41;;;;;;;10.97;4.23;;;11.80;99.90;;;;;;5011472;28;20502;-49
2021/12/31 04:00:09;;;;;;;4.60;4.10;;;11.80;99.90;;;;;;5011575;28;20929;-49
2021/12/31 04:02:37;;;;;;;7.20;4.47;;;11.70;99.90;;;;;;5011647;28;20969;-49
2021/12/31 04:05:05;;;;;;;8.87;5.20;;;11.80;99.90;;;;;;5011463;28;20499;-49
2021/12/31 04:07:31;;;;;;;5.43;4.30;;;11.80;99.90;;;;;;5011630;28;20538;-49
2021/12/31 04:09:58;;;;;;;5.50;5.00;;;11.80;99.90;;;;;;5011628;28;20876;-49
2021/12/31 04:12:24;;;;;;;7.73;4.90;;;11.80;99.90;;;;;;5011246;28;20493;-49
2021/12/31 04:14:51;;;;;;;6.13;5.63;;;11.70;99.90;;;;;;5011584;28;20464;-49
2021/12/31 04:17:17;;;;;;;6.83;6.03;;;11.70;99.90;;;;;;5011880;28;20535;-49
2021/12/31 04:19:51;;;;;;;5.87;5.37;;;11.80;99.90;;;;;;5012401;28;20511;-47
2021/12/31 04:22:20;;;;;;;6.90;5.20;;;11.70;99.90;;;;;;5015194;28;20447;-49
2021/12/31 04:24:53;;;;;;;6.10;5.60;;;11.80;99.90;;;;;;5014753;28;20459;-48
2021/12/31 04:27:21;;;;;;;7.33;5.97;;;11.80;99.90;;;;;;5014864;28;21040;-49
2021/12/31 04:29:53;;;;;;;5.87;5.33;;;11.80;99.90;;;;;;5015011;28;20509;-49
2021/12/31 04:32:22;;;;;;;8.43;6.07;;;11.80;99.90;;;;;;5015094;28;20451;-48
2021/12/31 04:34:50;;;;;;;6.27;5.70;;;11.70;99.90;;;;;;5014328;28;20454;-49
2021/12/31 04:37:17;;;;;;;6.40;5.80;;;11.70;99.90;;;;;;5014785;28;20476;-49
2021/12/31 04:39:43;;;;;;;7.50;6.60;;;11.70;99.90;;;;;;5014837;28;20517;-48
2021/12/31 04:42:10;;;;;;;7.10;6.30;;;11.80;99.90;;;;;;5014822;28;20487;-48
2021/12/31 04:44:37;;;;;;;7.63;6.07;;;11.80;99.90;;;;;;5014717;28;20867;-49
2021/12/31 04:47:04;;;;;;;7.20;6.00;;;11.80;99.90;;;;;;5014818;28;20886;-49
2021/12/31 04:49:31;;;;;;;9.70;6.40;;;11.80;99.90;;;;;;4995295;28;20475;-48
2021/12/31 04:51:59;;;;;;;7.63;6.83;;;11.80;99.90;;;;;;4995041;28;20516;-48
2021/12/31 04:54:26;;;;;;;6.33;5.83;;;11.80;99.90;;;;;;5002266;28;20479;-48
2021/12/31 04:56:54;;;;;;;8.70;6.00;;;11.90;99.90;;;;;;5014539;28;20511;-48
2021/12/31 04:59:21;;;;;;;6.07;5.57;;;11.80;99.90;;;;;;5014463;28;20494;-49
2021/12/31 05:01:48;;;;;;;6.67;6.17;;;11.80;99.90;;;;;;5014122;28;20534;-50
2021/12/31 05:04:15;;;;;;;6.10;5.50;;;11.90;99.90;;;;;;5014061;28;21000;-49
2021/12/31 05:06:42;;;;;;;7.03;6.20;;;11.80;92.30;;;;;;5014243;28;21029;-49
2021/12/31 05:09:10;;;;;;;7.40;5.67;;;11.90;20.60;;;;;;5013996;28;20447;-47
2021/12/31 05:11:37;;;;;;;5.70;5.30;;;11.80;26.20;;;;;;5014206;28;20545;-47
2021/12/31 05:14:04;;;;;;;5.63;5.10;;;11.80;28.90;;;;;;5014390;28;20480;-48
2021/12/31 05:16:31;;;;;;;7.27;5.13;;;11.80;30.50;;;;;;5013982;28;20478;-48
2021/12/31 05:18:58;;;;;;;7.30;5.30;;;11.80;40.00;;;;;;5013700;28;20990;-48
2021/12/31 05:21:24;;;;;;;5.30;4.90;;;11.90;53.80;;;;;;5013757;28;20482;-47
2021/12/31 05:23:51;;;;;;;4.90;4.50;;;11.80;49.50;;;;;;5014270;28;20475;-48
2021/12/31 05:26:19;;;;;;;5.93;4.57;;;11.90;56.40;;;;;;5014074;28;20526;-49
2021/12/31 05:28:45;;;;;;;4.27;4.03;;;11.80;62.10;;;;;;5013755;28;20480;-48
2021/12/31 05:31:12;;;;;;;6.53;4.43;;;11.80;73.50;;;;;;5012703;28;20483;-49
2021/12/31 05:33:38;;;;;;;3.63;3.43;;;11.90;78.40;;;;;;5013804;28;20483;-49
2021/12/31 05:36:05;;;;;;;7.13;3.97;;;11.90;85.30;;;;;;5013715;28;20558;-49
2021/12/31 05:38:32;;;;;;;4.60;3.67;;;11.80;93.90;;;;;;5013778;28;20471;-49
2021/12/31 05:40:58;;;;;;;3.83;3.50;;;11.80;95.90;;;;;;5013784;28;20909;-48
2021/12/31 05:43:26;;;;;;;3.63;3.33;;;11.80;97.70;;;;;;5014003;28;20482;-49
2021/12/31 05:45:53;;;;;;;4.03;3.73;;;11.80;99.90;;;;;;5013323;28;20580;-48
2021/12/31 05:48:19;;;;;;;4.77;3.57;;;11.80;99.90;;;;;;5013558;28;20538;-49
2021/12/31 05:50:46;;;;;;;4.50;3.73;;;11.80;99.90;;;;;;5013529;28;20467;-48
2021/12/31 05:53:12;;;;;;;5.70;3.30;;;11.80;99.90;;;;;;5013491;28;20480;-47
2021/12/31 05:55:39;;;;;;;10.30;3.60;;;11.80;99.90;;;;;;5013522;28;21005;-49
2021/12/31 05:58:05;;;;;;;3.73;3.53;;;11.80;99.90;;;;;;5012857;28;20975;-48
2021/12/31 06:00:33;;;;;;;3.93;3.47;;;11.80;99.90;;;;;;5012978;28;21020;-49
2021/12/31 06:03:00;;;;;;;3.97;3.10;;;11.80;99.90;;;;;;5013410;28;20487;-52
2021/12/31 06:05:27;;;;;;;5.23;3.47;;;11.80;99.90;;;;;;5013434;28;20495;-52
2021/12/31 06:07:55;;;;;;;5.70;3.47;;;11.90;99.90;;;;;;5013093;28;20475;-51
2021/12/31 06:10:22;;;;;;;3.43;3.10;;;11.90;99.90;;;;;;5013168;28;20483;-52
2021/12/31 06:12:48;;;;;;;3.80;3.50;;;11.90;99.90;;;;;;5012935;28;20502;-52
2021/12/31 06:15:17;;;;;;;3.80;3.50;;;11.90;99.90;;;;;;5012868;28;20480;-52
2021/12/31 06:17:45;;;;;;;3.17;2.97;;;11.90;99.90;;;;;;5012687;28;20477;-52
2021/12/31 06:20:12;;;;;;;3.33;3.03;;;11.80;99.90;;;;;;5012809;28;20541;-51
2021/12/31 06:22:38;;;;;;;5.23;3.33;;;11.80;99.90;;;;;;4993512;28;20531;-52
2021/12/31 06:25:06;;;;;;;3.07;2.97;;;11.80;99.90;;;;;;4993180;28;20883;-52
2021/12/31 06:27:33;;;;;;;3.07;2.83;;;11.80;99.90;;;;;;5005435;28;20535;-52
2021/12/31 06:29:59;;;;;;;3.80;3.60;;;11.80;99.90;;;;;;5013052;28;20479;-51
2021/12/31 06:32:26;;;;;;;3.57;3.30;;;11.80;99.90;;;;;;5012690;28;20548;-52
2021/12/31 06:34:53;;;;;;;3.30;3.00;;;11.80;99.90;;;;;;5012679;28;20953;-52
2021/12/31 06:37:20;;;;;;;13.13;3.70;;;11.80;99.90;;;;;;5012744;28;20913;-52
2021/12/31 06:39:47;;;;;;;3.40;3.20;;;11.80;99.90;;;;;;5012428;28;20578;-52
2021/12/31 06:42:14;;;;;;;3.40;3.17;;;11.80;99.90;;;;;;5011807;28;20456;-52
2021/12/31 06:44:41;;;;;;;3.40;3.07;;;11.80;99.90;;;;;;5012396;28;20479;-52
2021/12/31 06:47:08;;;;;;;4.63;3.20;;;11.80;99.90;;;;;;5012791;28;20881;-52
2021/12/31 06:49:35;;;;;;;5.47;3.67;;;11.80;99.90;;;;;;5012444;28;20455;-52
2021/12/31 06:52:04;;;;;;;5.70;3.20;;;11.90;99.90;;;;;;5012778;28;20526;-52
2021/12/31 06:54:30;;;;;;;6.77;3.37;;;11.80;99.90;;;;;;5012127;28;21022;-52
2021/12/31 06:56:57;;;;;;;3.47;3.27;;;11.80;99.90;;;;;;5012039;28;20515;-51
2021/12/31 06:59:24;;;;;;;3.73;3.40;;;11.80;99.90;;;;;;5011977;28;20867;-52
2021/12/31 07:01:50;;;;;;;4.17;3.87;;;11.80;99.90;;;;;;5012448;28;20483;-51
2021/12/31 07:04:17;;;;;;;3.90;3.50;;;11.80;99.90;;;;;;5012397;28;20471;-52
2021/12/31 07:06:43;;;;;;;4.30;3.90;;;11.80;99.90;;;;;;5012301;28;21043;-52
2021/12/31 07:09:11;;;;;;;4.60;3.40;;;11.80;99.90;;;;;;5011785;28;20570;-51
2021/12/31 07:11:38;;;;;;;4.70;3.50;;;11.80;99.90;;;;;;5011917;28;20475;-51
2021/12/31 07:14:04;;;;;;;12.53;4.20;;;11.80;99.90;;;;;;5012180;28;21164;-52
2021/12/31 07:16:31;;;;;;;9.77;4.30;;;11.80;99.90;;;;;;5012290;28;20483;-51
2021/12/31 07:18:57;;;;;;;4.80;3.80;;;11.80;99.90;;;;;;5011988;28;20480;-51
2021/12/31 07:21:24;;;;;;;7.07;3.57;;;11.80;99.90;;;;;;5011957;28;20538;-52
2021/12/31 07:23:51;;;;;;;6.37;3.87;;;11.70;99.90;;;;;;5011628;28;20575;-52
2021/12/31 07:26:18;;;;;;;6.10;4.20;;;11.70;99.90;;;;;;5011853;28;20551;-51
2021/12/31 07:28:45;;;;;;;4.60;4.20;;;11.80;99.90;;;;;;5011938;28;20443;-52
2021/12/31 07:31:14;;;;;;;4.47;4.07;;;11.80;99.90;;;;;;5011861;28;20557;-52
2021/12/31 07:33:41;;;;;;;4.10;3.90;;;11.80;99.90;;;;;;5011971;28;20444;-52
2021/12/31 07:36:07;;;;;;;5.73;4.43;;;11.80;99.90;;;;;;5011814;28;20538;-52
2021/12/31 07:38:37;;;;;;;4.90;3.70;;;11.80;99.90;;;;;;5011265;28;20490;-52
2021/12/31 07:41:04;;;;;;;4.60;3.60;;;11.80;99.90;;;;;;5011979;28;20484;-52
2021/12/31 07:43:32;;;;;;;4.43;4.03;;;11.80;99.90;;;;;;5011735;28;20994;-51
2021/12/31 07:45:59;;;;;;;5.17;4.67;;;11.80;99.90;;;;;;5011876;28;20514;-52
2021/12/31 07:48:26;;;;;;;5.17;4.47;;;11.80;99.90;;;;;;5011792;28;20452;-52
2021/12/31 07:50:54;;;;;;;4.55;4.15;;;11.80;99.90;;;;;;5011246;28;20874;-51
2021/12/31 07:53:21;;;;;;;4.30;3.90;;;11.80;99.90;;;;;;5011593;28;20208;-51
2021/12/31 07:55:47;;;;;;;5.50;3.90;;;11.90;99.90;;;;;;5014799;28;20511;-51
2021/12/31 07:58:14;;;;;;;4.60;4.03;;;11.90;99.90;;;;;;5015535;28;20917;-51
2021/12/31 08:00:42;;;;;;;5.43;3.90;;;11.90;99.90;;;;;;5015648;28;20578;-51
2021/12/31 08:03:08;;;;;;;4.20;3.90;;;11.80;99.90;;;;;;5015581;28;20448;-52
2021/12/31 08:05:35;;;;;;;4.20;3.90;;;11.90;99.90;;;;;;5015243;28;20501;-50
2021/12/31 08:08:04;;;;;;;4.43;3.40;;;11.90;99.90;;;;;;5015168;28;20487;-52
2021/12/31 08:10:33;;;;;;;5.97;3.43;;;11.90;99.90;;;;;;5015612;28;20475;-52
2021/12/31 08:13:00;;;;;;;8.23;3.20;;;11.90;99.90;;;;;;5015628;28;20956;-51
2021/12/31 08:15:26;;;;;;;3.77;3.50;;;11.90;99.90;;;;;;5015428;28;20850;-51
2021/12/31 08:17:55;;;;;;;4.90;3.13;;;11.90;99.90;;;;;;5015233;28;20479;-51
2021/12/31 08:20:22;;;;;;;3.57;3.27;;;12.00;99.90;;;;;;5014911;28;20575;-50
2021/12/31 08:22:48;;;;;;;6.23;3.67;;;12.00;99.90;;;;;;5015229;28;20490;-51
2021/12/31 08:25:15;;;;;;;3.97;3.03;;;12.00;99.90;;;;;;5015250;28;21024;-51
2021/12/31 08:27:42;;;;;;;3.67;3.37;;;11.90;99.90;;;;;;5014976;28;20542;-50
2021/12/31 08:30:09;;;;;;;4.10;3.10;;;12.00;99.90;;;;;;5015157;28;20480;-50
2021/12/31 08:32:36;;;;;;;6.43;3.40;;;12.00;99.90;;;;;;5014966;28;20490;-51
2021/12/31 08:35:04;;;;;;;3.77;3.40;;;12.00;99.90;;;;;;5014984;28;21028;-51
2021/12/31 08:37:31;;;;;;;4.00;3.50;;;12.00;99.90;;;;;;4996752;28;20526;-52
2021/12/31 08:39:58;;;;;;;3.50;3.20;;;12.00;99.90;;;;;;4995489;28;20480;-51
2021/12/31 08:42:24;;;;;;;5.73;3.80;;;12.10;99.90;;;;;;4995328;28;20448;-51
2021/12/31 08:44:51;;;;;;;6.03;3.63;;;12.10;20.90;;;;;;5006022;28;20490;-51
2021/12/31 08:47:18;;;;;;;5.37;3.67;;;12.10;26.90;;;;;;5014599;28;20478;-51
2021/12/31 08:49:44;;;;;;;3.50;3.20;;;12.10;34.60;;;;;;5014309;28;20475;-51
2021/12/31 08:52:12;;;;;;;5.70;3.00;;;12.10;36.70;;;;;;5014736;28;20448;-51
2021/12/31 08:54:39;;;;;;;4.53;3.23;;;12.10;42.90;;;;;;5014603;28;20486;-51
2021/12/31 08:57:05;;;;;;;3.30;3.00;;;12.20;46.90;;;;;;5014783;28;20522;-51
2021/12/31 08:59:32;;;;;;;3.03;2.83;;;12.10;51.00;;;;;;5014367;28;20479;-51
2021/12/31 09:01:59;;;;;;;2.90;2.70;;;12.10;48.40;;;;;;5014805;28;20479;-51
2021/12/31 09:04:26;;;;;;;7.07;2.83;;;12.10;49.00;;;;;;5014825;28;20476;-51
2021/12/31 09:06:52;;;;;;;4.60;2.90;;;12.20;60.00;;;;;;5012693;28;20557;-50
2021/12/31 09:09:20;;;;;;;2.50;2.30;;;12.20;61.10;;;;;;5013833;28;20451;-50
2021/12/31 09:11:47;;;;;;;3.77;2.57;;;12.20;61.10;;;;;;5014484;28;20475;-50
2021/12/31 09:14:14;;;;;;;3.70;2.73;;;12.10;70.00;;;;;;5014430;28;20502;-51
2021/12/31 09:16:45;;;;;;;6.27;3.00;;;12.20;69.30;;;;;;5014124;28;20550;-50
2021/12/31 09:19:12;;;;;;;3.67;2.63;;;12.20;68.50;;;;;;5014121;28;20542;-50
2021/12/31 09:21:38;;;;;;;2.50;2.30;;;12.20;81.00;;;;;;5014190;28;20591;-51
2021/12/31 09:24:06;;;;;;;2.30;2.20;;;12.20;77.20;;;;;;5023717;28;20459;-49
2021/12/31 09:26:35;;;;;;;3.40;2.70;;;12.20;75.70;;;;;;5022828;28;20917;-55
2021/12/31 09:29:03;;;;;;;3.60;2.27;;;12.20;77.80;;;;;;5011918;28;20490;-56
2021/12/31 09:31:29;;;;;;;2.47;2.33;;;12.20;76.90;;;;;;5007164;28;20531;-55
2021/12/31 09:33:56;;;;;;;2.90;2.57;;;12.20;81.30;;;;;;5014167;28;20472;-56
2021/12/31 09:36:23;;;;;;;4.93;2.50;;;12.20;89.50;;;;;;5014054;28;20495;-56
2021/12/31 09:38:49;;;;;;;4.40;2.70;;;12.30;92.80;;;;;;5013595;28;20449;-55
2021/12/31 09:41:16;;;;;;;2.97;2.33;;;12.20;96.70;;;;;;5012958;28;20567;-55
2021/12/31 09:43:49;;;;;;;2.73;2.53;;;12.30;99.90;;;;;;5013911;28;20476;-57
2021/12/31 09:46:16;;;;;;;2.83;2.57;;;12.30;99.90;;;;;;5013530;28;20475;-56
2021/12/31 09:48:43;;;;;;;5.13;2.70;;;12.30;99.90;;;;;;5013244;28;20506;-55
2021/12/31 09:51:09;;;;;;;3.20;2.30;;;12.30;99.90;;;;;;5013556;28;20472;-55
2021/12/31 09:53:36;;;;;;;3.00;2.23;;;12.30;97.00;;;;;;5013184;28;20894;-55
2021/12/31 09:56:03;;;;;;;1.80;1.70;;;12.20;97.60;;;;;;5039221;23;20522;-55
2021/12/31 09:58:30;;;;;;;2.70;2.23;;;12.30;99.90;;;;;;5030575;28;20474;-55
2021/12/31 10:01:01;;;;;;;5.33;2.67;;;12.30;99.90;;;;;;5033373;28;20517;-57
2021/12/31 10:03:30;;;;;;;2.30;2.10;;;12.30;99.90;;;;;;5033380;28;20450;-55
2021/12/31 10:05:58;;;;;;;2.77;1.67;;;12.30;99.90;;;;;;5033285;28;20483;-55
2021/12/31 10:08:27;;;;;;;5.00;2.40;;;12.30;99.90;;;;;;5032778;28;20527;-54
2021/12/31 10:11:05;;;;;;;3.60;1.97;;;12.40;99.90;;;;;;5032781;28;20451;-55
2021/12/31 10:13:33;;;;;;;6.20;2.70;;;12.40;99.90;;;;;;5032904;28;20516;-54
2021/12/31 10:16:01;;;;;;;4.10;2.37;;;12.40;99.90;;;;;;5034213;28;20992;-55
2021/12/31 10:18:34;;;;;;;4.40;2.37;;;12.40;99.90;;;;;;5032183;28;21027;-55
2021/12/31 10:21:01;;;;;;;7.40;3.00;;;12.50;99.90;;;;;;5035829;28;20991;-61
2021/12/31 10:23:28;;;;;;;5.30;2.63;;;12.50;99.90;;;;;;5036477;28;21011;-56
2021/12/31 10:26:08;;;;;;;3.17;2.47;;;12.50;99.90;;;;;;5035728;28;20815;-58
2021/12/31 10:28:35;;;;;;;10.10;2.20;;;12.50;99.90;;;;;;5035779;28;20458;-57
2021/12/31 10:31:21;;;;;;;4.40;2.20;;;12.50;99.90;;;;;;5034137;28;20443;-56
2021/12/31 10:33:49;;;;;;;7.60;2.87;;;12.50;99.90;;;;;;5032710;28;20963;-57
2021/12/31 10:36:36;;;;;;;4.03;2.23;;;12.50;1.40;;;;;;5032523;28;20497;-56
2021/12/31 10:39:16;;;;;;;4.00;2.13;;;12.60;99.90;;;;;;5032740;28;20485;-56
2021/12/31 10:41:44;;;;;;;2.80;1.90;;;12.60;99.90;;;;;;5031957;28;20527;-55
2021/12/31 10:44:11;;;;;;;3.23;1.63;;;12.70;99.90;;;;;;5032046;28;20461;-57
2021/12/31 10:46:39;;;;;;;10.63;2.30;;;12.60;99.90;;;;;;5032281;28;21042;-56
2021/12/31 10:49:10;;;;;;;4.40;2.40;;;12.60;99.90;;;;;;5032063;28;20474;-57
2021/12/31 10:51:39;;;;;;;5.73;2.20;;;12.70;99.90;;;;;;5031961;28;20802;-56
2021/12/31 10:54:31;;;;;;;3.77;2.10;;;12.70;99.90;;;;;;5032156;28;20470;-56
2021/12/31 10:56:59;;;;;;;2.13;1.73;;;12.70;99.90;;;;;;5031436;28;20477;-56
2021/12/31 10:59:26;;;;;;;2.90;2.23;;;12.80;99.90;;;;;;5031731;28;20528;-56
2021/12/31 11:01:54;;;;;;;3.10;2.03;;;12.80;99.90;;;;;;5032225;28;20478;-57
2021/12/31 11:04:21;;;;;;;2.80;2.33;;;12.80;92.30;;;;;;5032198;28;20446;-56
2021/12/31 11:06:49;;;;;;;2.30;2.10;;;12.80;94.40;;;;;;5031732;28;20470;-57
2021/12/31 11:09:16;;;;;;;2.63;2.13;;;12.80;99.90;;;;;;5032195;28;20473;-55
2021/12/31 11:11:43;;;;;;;3.47;2.00;;;12.80;21.30;;;;;;5031998;28;20477;-54
2021/12/31 11:14:11;;;;;;;3.97;2.40;;;12.80;29.50;;;;;;5021068;28;20455;-58
2021/12/31 11:16:39;;;;;;;2.20;1.70;;;12.90;29.80;;;;;;5031675;28;20539;-56
2021/12/31 11:19:08;;;;;;;7.13;1.90;;;12.90;38.50;;;;;;5031524;28;20451;-54
2021/12/31 11:21:36;;;;;;;5.23;2.80;;;12.90;45.50;;;;;;5031985;28;20478;-55
2021/12/31 11:24:27;;;;;;;1.90;1.60;;;13.00;50.00;;;;;;5031893;28;20870;-57
2021/12/31 11:26:54;;;;;;;3.90;1.77;;;13.00;52.70;;;;;;5031741;28;20490;-58
2021/12/31 11:29:20;;;;;;;1.20;1.20;;;13.10;60.20;;;;;;5030125;28;20489;-58
2021/12/31 11:31:47;;;;;;;2.20;1.50;;;13.10;60.30;;;;;;5031587;28;20435;-54
2021/12/31 11:34:16;;;;;;;2.53;1.53;;;13.10;72.00;;;;;;5031907;28;20481;-54
2021/12/31 11:36:48;;;;;;;2.03;1.40;;;13.20;72.90;;;;;;5031858;28;20470;-55
2021/12/31 11:39:16;;;;;;;4.20;1.83;;;13.20;87.10;;;;;;5031459;28;20443;-54
2021/12/31 11:41:43;;;;;;;2.90;1.63;;;13.30;90.10;;;;;;5031574;28;20517;-55
2021/12/31 11:44:11;;;;;;;2.50;1.60;;;13.30;99.70;;;;;;5031226;28;20520;-54
2021/12/31 11:46:40;;;;;;;3.13;1.53;;;13.30;99.90;;;;;;5031581;28;20462;-55
2021/12/31 11:49:22;;;;;;;3.40;1.50;;;13.40;99.90;;;;;;5031367;28;20504;-55
2021/12/31 11:52:08;;;;;;;2.77;1.43;;;13.50;99.90;;;;;;5031708;28;20482;-54
2021/12/31 11:54:36;;;;;;;1.83;1.30;;;13.50;99.90;;;;;;5031571;28;20451;-56
2021/12/31 11:57:18;;;;;;;1.93;1.60;;;13.50;99.90;;;;;;5025265;28;20479;-57
2021/12/31 11:59:49;;;;;;;2.70;1.57;;;13.60;99.90;;;;;;5031826;28;20442;-56
2021/12/31 12:02:18;;;;;;;6.70;1.30;;;13.60;99.90;;;;;;5031465;28;20555;-55
2021/12/31 12:05:08;;;;;;;1.67;1.57;;;13.60;99.90;;;;;;5031373;28;20450;-56
2021/12/31 12:07:37;;;;;;;13.63;5.67;;;13.50;99.90;;;;;;5031277;28;20497;-58
2021/12/31 12:10:12;;;;;;;2.03;1.73;;;13.50;99.90;;;;;;5031610;28;20443;-58
2021/12/31 12:12:40;;;;;;;1.70;1.40;;;13.50;99.90;;;;;;5030945;28;20453;-58
2021/12/31 12:15:26;;;;;;;3.70;1.10;;;13.50;99.90;;;;;;5031266;28;20454;-58
2021/12/31 12:17:52;;;;;;;1.90;1.60;;;13.50;99.90;;;;;;5032438;28;20960;-57
2021/12/31 12:20:22;;;;;;;1.67;1.40;;;13.50;99.90;;;;;;5032020;28;20489;-58
2021/12/31 12:22:51;;;;;;;2.77;1.97;;;13.50;99.90;;;;;;5031639;28;20514;-58
2021/12/31 12:25:20;;;;;;;1.87;1.77;;;13.40;99.90;;;;;;5030674;28;21011;-57
2021/12/31 12:27:48;;;;;;;2.73;1.50;;;13.40;99.90;;;;;;5030649;28;20525;-57
2021/12/31 12:30:16;;;;;;;1.77;1.50;;;13.30;99.90;;;;;;5031003;28;20453;-56
2021/12/31 12:32:54;;;;;;;1.87;1.57;;;13.30;98.60;;;;;;5032759;28;20447;-58
2021/12/31 12:35:23;;;;;;;2.67;1.63;;;13.20;99.90;;;;;;5031210;28;20451;-57
2021/12/31 12:37:56;;;;;;;3.93;1.73;;;13.30;98.30;;;;;;5030910;28;20438;-57
2021/12/31 12:40:36;;;;;;;1.90;1.73;;;13.20;95.40;;;;;;5031501;28;20447;-58
2021/12/31 12:43:04;;;;;;;1.83;1.60;;;13.20;90.30;;;;;;5035390;28;20486;-58
2021/12/31 12:45:31;;;;;;;3.70;1.50;;;13.10;78.20;;;;;;5035668;28;20486;-57
2021/12/31 12:47:57;;;;;;;3.53;1.83;;;13.10;89.60;;;;;;5034633;28;20483;-58
2021/12/31 12:50:25;;;;;;;2.77;1.90;;;13.20;93.80;;;;;;5034795;28;20438;-58
2021/12/31 12:52:56;;;;;;;3.83;1.40;;;13.10;90.90;;;;;;5034431;28;20466;-57